Labadie, Missouri
Current Conditions -  °F | °C
As of 3:35 PM on Friday 19 Dec 2014 (Local Time) from KFYG Reporting Station
Haze Haze  
Wind Chill: 36°   Ceiling: 5500
Heat Index: 36°   Visibility: 5mi
Dew Point: 32°   Wind: 3mph
Humidity: 87%   Direction: 120°ESE
Pressure: 30.26"   Gusts: NA
Location:  38.53°N, 90.85°W
Report Text: KFYG 192135Z AUTO 12003KT 5SM HZ OVC055 02/00 A3026 RMK AO2
Loading
Personal Weather Stations






























Interactive Weather Map New forecast layout! Learn more

10-Day Weather Forecast

Advertisements
Track Severe Weather on mobile